Terminal Aerodrome Forecast
Issued by NWS

Home | Current Version | Previous Version | Text Only | Print | Product List | Glossary On
Versions: 1 2 3 4 5 6 7 8 9 10 11 12 13 14 15 16 17 18 19 20
000
FTUS46 KMFR 312336
TAFOTH
TAF
KOTH 312336Z 0100/0124 35015G22KT P6SM BKN250
     FM010600 34007KT P6SM SCT015 SCT250
     FM010800 02004KT P6SM BKN015
     FM011000 VRB04KT P6SM BKN007 BKN015
     FM011700 33007KT P6SM SCT010 SCT250
     FM011900 34012G19KT P6SM BKN250=

USA.gov is the U.S. government's official web portal to all federal, state and local government web resources and services.